Bookmark and Share
Track history (hours):
 

Aurora

Last reported at 2014-Apr-10 21:11 UTC. Time now 2014-Apr-24 13:55 UTC.
Position N 34°13' W 076°33'.
Warning: this ship's position is 13 days out of date.

Length 170 m; draft 6.6 m.

Type: Tanker. MMSI: 538001356.

NotesDate/timePositionNaut miles runAvg speedWind from/ knotsBaromVisibWave heightAir tempDewpointWater temp
2014-Apr-10 21:11N 34°13' W 076°33'812.9
2014-Apr-10 20:33N 34°21' W 076°35'1111.4
2014-Apr-10 19:33N 34°32' W 076°38'6 5.9
2014-Apr-10 18:33N 34°38' W 076°40'0 0.0
2014-Apr-10 17:33N 34°38' W 076°40'0 0.1
2014-Apr-10 16:33N 34°38' W 076°40'0 0.1
2014-Apr-10 15:33N 34°38' W 076°40'0 0.1
2014-Apr-10 14:33N 34°38' W 076°40'0 0.0
2014-Apr-10 13:33N 34°38' W 076°40'1 1.3
2014-Apr-10 12:33N 34°39' W 076°41'4 4.0
2014-Apr-10 11:33N 34°43' W 076°41'0 0.0
2014-Apr-10 10:32N 34°43' W 076°41'0 0.0
2014-Apr-10 09:32N 34°43' W 076°41'0 0.0
2014-Apr-10 08:31N 34°43' W 076°41'0 0.0
2014-Apr-10 07:31N 34°43' W 076°41'0 0.0
2014-Apr-10 06:32N 34°43' W 076°41'0 0.0
2014-Apr-10 05:30N 34°43' W 076°41'0 0.0
2014-Apr-10 04:32N 34°43' W 076°41'0 0.0
2014-Apr-10 03:27N 34°43' W 076°41'0 0.0
2014-Apr-10 02:31N 34°43' W 076°41'0 0.0
2014-Apr-10 01:31N 34°43' W 076°41'0 0.0
2014-Apr-10 00:31N 34°43' W 076°41'0 0.0
2014-Apr-09 23:31N 34°43' W 076°41'0 0.0
2014-Apr-09 22:28N 34°43' W 076°41'0 0.0
2014-Apr-09 21:28N 34°43' W 076°41'0 0.0
2014-Apr-09 20:31N 34°43' W 076°41'0 0.0
2014-Apr-09 19:31N 34°43' W 076°41'0 0.0
2014-Apr-09 18:31N 34°43' W 076°41'0 0.0
2014-Apr-09 17:28N 34°43' W 076°41'0 0.0
2014-Apr-09 16:31N 34°43' W 076°41'0 0.0
2014-Apr-09 15:31N 34°43' W 076°41'0 0.0
2014-Apr-09 14:31N 34°43' W 076°41'0 0.0
2014-Apr-09 13:31N 34°43' W 076°41'0 0.0
2014-Apr-09 12:31N 34°43' W 076°41'0 0.0
2014-Apr-09 11:31N 34°43' W 076°41'0 0.0
2014-Apr-09 10:32N 34°43' W 076°41'0 0.0
2014-Apr-09 09:32N 34°43' W 076°41'0 0.0
2014-Apr-09 08:32N 34°43' W 076°41'0 0.0
2014-Apr-09 07:26N 34°43' W 076°41'0 0.0
2014-Apr-09 06:32N 34°43' W 076°41'0 0.0
2014-Apr-09 05:32N 34°43' W 076°41'0 0.0
2014-Apr-09 04:32N 34°43' W 076°41'0 0.0
2014-Apr-09 03:32N 34°43' W 076°41'0 0.0
2014-Apr-09 02:32N 34°43' W 076°41'0 0.0
2014-Apr-09 01:32N 34°43' W 076°41'0 0.0
2014-Apr-09 00:28N 34°43' W 076°41'0 0.0
2014-Apr-08 23:31N 34°43' W 076°41'0 0.0
2014-Apr-08 22:33N 34°43' W 076°41'0 0.0
2014-Apr-08 21:33N 34°43' W 076°41'0 0.0
2014-Apr-08 20:33N 34°43' W 076°41'0 0.0
2014-Apr-08 19:30N 34°43' W 076°41'0 0.0
2014-Apr-08 18:32N 34°43' W 076°41'0 0.0
2014-Apr-08 17:32N 34°43' W 076°41'0 0.0
2014-Apr-08 16:32N 34°43' W 076°41'0 0.0
2014-Apr-08 15:32N 34°43' W 076°41'0 0.0
2014-Apr-08 14:32N 34°43' W 076°41'0 0.0
2014-Apr-08 13:32N 34°43' W 076°41'0 0.0
2014-Apr-08 12:32N 34°43' W 076°41'0 0.0
2014-Apr-08 11:23N 34°43' W 076°41'0 0.0
2014-Apr-08 10:33N 34°43' W 076°41'0 0.0
2014-Apr-08 09:33N 34°43' W 076°41'0 0.0
2014-Apr-08 08:33N 34°43' W 076°41'0 0.0
2014-Apr-08 07:33N 34°43' W 076°41'0 0.0
2014-Apr-08 06:33N 34°43' W 076°41'0 0.0
2014-Apr-08 05:33N 34°43' W 076°41'0 0.0
2014-Apr-08 04:33N 34°43' W 076°41'0 0.0
2014-Apr-08 03:33N 34°43' W 076°41'1 0.9
2014-Apr-08 02:33N 34°42' W 076°41'8 8.0
2014-Apr-08 01:33N 34°34' W 076°41'47210.9
2014-Apr-06 06:12N 27°01' W 079°17'  
2014-Apr-03 16:14N 26°31' W 078°48'0 0.0
2014-Apr-03 14:12N 26°31' W 078°48'4310.9
2014-Apr-03 10:15N 26°00' W 079°22'  

Dump ship's entire track history

sailing weather and tide predictions

Aurora — V7BS9 — position and weather